Puerto del Rosario, Spain
Current Conditions -  °F | °C
As of 10:30 AM on Saturday 22 Nov 2014 (Local Time) from GCFV Reporting Station
Few Clouds Few Clouds  
Wind Chill: 72°   Ceiling: Unl
Heat Index: 72°   Visibility: 6mi
Dew Point: 63°   Wind: 18mph
Humidity: 73%   Direction: 280°W
Pressure: 29.71"   Gusts: NA
Location:  28.5°N, 13.86°W
Report Text: GCFV 221030Z 28016KT 9999 FEW035 22/17 Q1006
Loading
Personal Weather Stations






























Interactive Weather Map New forecast layout! Learn more

10-Day Weather Forecast

Advertisements
Track Severe Weather on mobile